Terminal Aerodrome Forecast
Issued by NWS

Home | Current Version | Previous Version | Text Only | Print | Product List | Glossary On
Versions: 1 2 3 4 5 6 7 8 9 10 11 12 13 14 15 16 17 18
000
FTUS45 KBOU 282008 AAA
TAFBJC
TAF AMD
KBJC 282008Z 2820/2918 08007KT P6SM SKC
     FM290000 15010KT P6SM FEW120
     FM290600 23006KT P6SM FEW220
     FM291600 29007KT P6SM FEW220=

USA.gov is the U.S. government's official web portal to all federal, state and local government web resources and services.